Webcam Meteoipassi more information Webcam Meteoipassi


altri nostri siti meteo:

Pomeziameteo 1Sito sul meteo

MeteopomeziaSito sul meteo

Pomeziameteo DashboardSito sul meteo

Caput FrigorisSito sul meteo

BarcellonameteoSito sul meteo

ViterbometeoSito sul meteo

MeteotortoretoSito sul meteo

TortoretometeolidoSito sul meteo

MeteoGonzagaSito sul meteo



No particular awareness of the weather is required.    There are no Weather-warnings

Report METAR

   
LIRQ - Firenze
Dati ricevuti: Sep 23 2021 12:50 pm
Sereno  
Sereno  
   Vento: SE 9.3 km/h
Vento: SE 9.3 km/h
Temperatura: 25°C
P.to Rugiada: 11°C
Umidita: 42%
Barometro: 1022 hPa
Visibilita: oltre 10 km
dettagli cloud: Sereno
LIRQ 231050Z 14005KT 090V180 CAVOK 25/11 Q1022
LIRP - Lucca
Dati ricevuti: Sep 23 2021 12:45 pm
Sereno  
Sereno  
   Vento: Oriente 11.1 km/h
Vento: Oriente 11.1 km/h
Temperatura: 24°C
P.to Rugiada: 12°C
Umidita: 47%
Barometro: 1022 hPa
Visibilita: oltre 10 km
dettagli cloud: Sereno
LIRP 231045Z 09006KT CAVOK 24/12 Q1022 NOSIG
LIPE - Bologna
Dati ricevuti: Sep 23 2021 12:50 pm
Sereno  
Sereno  
   Vento: Oriente 9.3 km/h
Vento: Oriente 9.3 km/h
Temperatura: 23°C
P.to Rugiada: 10°C
Umidita: 44%
Barometro: 1023 hPa
Visibilita: oltre 10 km
dettagli cloud: Sereno
LIPE 231050Z 10005KT 030V170 CAVOK 23/10 Q1023 WS R12
LIMP - Parma
Dati ricevuti: Sep 23 2021 12:50 pm
Sereno  
Sereno  
   Vento: Variabile 5.6 km/h
Vento: Variabile 5.6 km/h
Temperatura: 23°C
P.to Rugiada: 11°C
Umidita: 47%
Barometro: 1023 hPa
Visibilita: oltre 10 km
dettagli cloud: Sereno
LIMP 231050Z VRB03KT CAVOK 23/11 Q1023
  

Script sviluppato da  Saratoga-weather.org Adattato per il modello da  Weerstation Leuven

Potete trovare le nostre info meteo anche a:

European Weather Network

Weather Underground

AWEKAS

HAMweather, WeatherForYou, PWS Weather

Strumentazione usata:

Stazione meteo
Davis Vantage Vue

Programma gestore dati meteo
WVIEW

Server per i dati meteo
WDS-5

Provider
Anemos WDS-5

Davis Vantage Vue

WVIEW

WDS-5

Anemos WDS-5